Time;durP1;ratioP1;P1;durP2;ratioP2;P2;SDS_P1;SDS_P2;PMS_P1;PMS_P2;Temp;Humidity;BMP_temperature;BMP_pressure;BME280_temperature;BME280_humidity;BME280_pressure;Samples;Min_cycle;Max_cycle;Signal;HPM_P1;HPM_P2
2023/02/18 00:01:00;;;;;;;137.47;70.93;;;8.70;99.80;;;;;;6277390;22;20059;-69
2023/02/18 00:03:27;;;;;;;127.90;68.40;;;8.70;99.80;;;;;;6277600;22;20000;-69
2023/02/18 00:05:53;;;;;;;138.17;73.23;;;8.70;99.80;;;;;;6277701;22;20433;-69
2023/02/18 00:08:20;;;;;;;138.80;72.33;;;8.70;99.80;;;;;;6277348;22;19999;-70
2023/02/18 00:10:46;;;;;;;137.10;70.03;;;8.70;99.80;;;;;;6277489;22;19999;-67
2023/02/18 00:13:11;;;;;;;135.90;72.00;;;8.70;99.90;;;;;;6277536;22;19999;-69
2023/02/18 00:15:37;;;;;;;135.23;72.20;;;8.70;99.80;;;;;;6277657;22;20074;-69
2023/02/18 00:18:04;;;;;;;126.43;68.03;;;8.70;99.80;;;;;;6277533;22;20315;-69
2023/02/18 00:20:32;;;;;;;123.87;66.33;;;8.70;99.80;;;;;;6277819;22;20006;-69
2023/02/18 00:22:58;;;;;;;130.83;71.60;;;8.70;99.80;;;;;;6277663;22;20035;-69
2023/02/18 00:25:24;;;;;;;133.20;70.10;;;8.70;99.80;;;;;;6277276;22;19996;-69
2023/02/18 00:27:50;;;;;;;131.07;72.13;;;8.70;99.90;;;;;;6277249;22;20007;-68
2023/02/18 00:30:16;;;;;;;130.90;71.10;;;8.80;99.90;;;;;;6277539;22;20073;-68
2023/02/18 00:32:41;;;;;;;135.77;70.33;;;8.70;99.80;;;;;;6277356;22;20050;-68
2023/02/18 00:35:07;;;;;;;129.47;68.47;;;8.70;99.90;;;;;;6277618;22;20489;-68
2023/02/18 00:37:33;;;;;;;130.63;72.03;;;8.70;99.90;;;;;;6277394;22;20007;-67
2023/02/18 00:39:58;;;;;;;136.53;72.80;;;8.70;99.90;;;;;;6277215;22;20073;-68
2023/02/18 00:42:24;;;;;;;130.37;71.17;;;8.60;99.90;;;;;;6277109;22;20011;-68
2023/02/18 00:44:50;;;;;;;130.87;71.57;;;8.70;99.90;;;;;;6277363;22;20369;-68
2023/02/18 00:47:15;;;;;;;129.60;68.33;;;8.60;99.90;;;;;;6277406;22;20000;-69
2023/02/18 00:49:41;;;;;;;127.43;67.87;;;8.70;99.90;;;;;;6277410;22;20493;-69
2023/02/18 00:52:07;;;;;;;130.80;69.07;;;8.60;99.90;;;;;;6277288;22;20061;-67
2023/02/18 00:54:32;;;;;;;132.60;69.90;;;8.70;99.90;;;;;;6277352;22;20403;-67
2023/02/18 00:56:58;;;;;;;131.93;70.73;;;8.70;99.90;;;;;;6277156;22;20050;-68
2023/02/18 00:59:24;;;;;;;138.40;73.83;;;8.70;99.90;;;;;;6277085;22;20319;-67
2023/02/18 01:01:49;;;;;;;141.60;72.83;;;8.60;99.90;;;;;;6277072;22;20010;-67
2023/02/18 01:04:15;;;;;;;138.70;72.60;;;8.60;99.90;;;;;;6277377;22;19995;-67
2023/02/18 01:06:41;;;;;;;134.50;70.80;;;8.70;99.90;;;;;;6277015;22;20406;-67
2023/02/18 01:09:06;;;;;;;138.60;74.57;;;8.70;99.80;;;;;;6277265;22;20003;-67
2023/02/18 01:11:33;;;;;;;131.03;73.53;;;8.70;99.70;;;;;;6276988;22;20003;-68
2023/02/18 01:13:58;;;;;;;136.83;73.97;;;8.70;99.60;;;;;;6277204;22;19999;-69
2023/02/18 01:16:24;;;;;;;139.07;74.23;;;8.70;99.60;;;;;;6276781;22;20000;-68
2023/02/18 01:18:50;;;;;;;136.63;75.53;;;8.70;99.60;;;;;;6277094;22;20006;-67
2023/02/18 01:21:16;;;;;;;142.17;74.63;;;8.70;99.60;;;;;;6276776;22;20004;-67
2023/02/18 01:23:42;;;;;;;140.27;75.10;;;8.60;99.60;;;;;;6276669;22;19999;-67
2023/02/18 01:26:09;;;;;;;141.17;76.70;;;8.70;99.90;;;;;;6277002;22;20026;-68
2023/02/18 01:28:35;;;;;;;139.20;75.80;;;8.70;99.70;;;;;;6276638;22;20512;-68
2023/02/18 01:31:09;;;;;;;135.93;74.57;;;8.60;99.70;;;;;;6276589;22;20007;-68
2023/02/18 01:33:35;;;;;;;148.90;78.47;;;8.70;99.70;;;;;;6276522;22;20004;-67
2023/02/18 01:36:01;;;;;;;143.77;77.67;;;8.70;99.70;;;;;;6276464;22;20065;-68
2023/02/18 01:38:27;;;;;;;139.60;75.53;;;8.60;99.70;;;;;;6276802;22;20011;-68
2023/02/18 01:40:53;;;;;;;141.37;76.00;;;8.60;99.80;;;;;;6276545;22;20061;-67
2023/02/18 01:43:20;;;;;;;145.93;76.57;;;8.60;99.80;;;;;;6276919;22;20054;-68
2023/02/18 01:46:15;;;;;;;147.50;79.17;;;8.60;99.90;;;;;;6276900;22;20003;-68
2023/02/18 01:48:53;;;;;;;148.33;76.47;;;8.60;99.90;;;;;;6276820;22;20007;-67
2023/02/18 01:51:26;;;;;;;148.03;78.70;;;8.60;99.90;;;;;;6276096;22;20011;-67
2023/02/18 01:53:58;;;;;;;144.25;77.00;;;8.60;99.90;;;;;;6276711;22;20027;-67
2023/02/18 01:57:00;;;;;;;145.15;76.50;;;8.60;99.90;;;;;;6249641;22;20350;-67
2023/02/18 01:59:31;;;;;;;149.53;77.30;;;8.60;99.90;;;;;;6272879;22;20090;-70
2023/02/18 02:01:58;;;;;;;142.02;75.10;;;8.60;99.90;;;;;;6273221;22;20086;-68
2023/02/18 02:04:24;;;;;;;145.60;77.00;;;8.60;99.90;;;;;;6273904;22;20385;-69
2023/02/18 02:06:50;;;;;;;143.90;77.57;;;8.60;99.90;;;;;;6276203;22;20004;-70
2023/02/18 02:09:18;;;;;;;152.57;77.70;;;8.60;99.90;;;;;;6276496;22;20452;-70
2023/02/18 02:12:18;;;;;;;145.40;75.40;;;8.60;99.90;;;;;;6276442;22;20004;-71
2023/02/18 02:15:05;;;;;;;142.20;74.03;;;8.60;99.90;;;;;;6275875;22;20024;-70
2023/02/18 02:17:36;;;;;;;141.07;75.97;;;8.60;99.90;;;;;;6276513;22;20090;-67
2023/02/18 02:20:23;;;;;;;144.87;77.07;;;8.60;99.90;;;;;;6276084;22;20048;-70
2023/02/18 02:23:04;;;;;;;147.17;77.80;;;8.60;99.90;;;;;;6276195;22;19999;-67
2023/02/18 02:25:44;;;;;;;137.90;76.63;;;8.60;99.90;;;;;;6276177;22;20026;-68
2023/02/18 02:28:44;;;;;;;139.27;77.17;;;8.60;99.90;;;;;;6275722;22;20038;-68
2023/02/18 02:31:18;;;;;;;144.87;77.27;;;8.60;99.90;;;;;;6276325;22;19999;-70
2023/02/18 02:34:04;;;;;;;149.90;78.63;;;8.60;99.90;;;;;;6276225;22;20007;-68
2023/02/18 02:36:44;;;;;;;144.57;76.07;;;8.60;99.90;;;;;;6275839;22;20038;-68
2023/02/18 02:39:20;;;;;;;148.23;76.90;;;8.50;99.90;;;;;;6276205;22;20033;-67
2023/02/18 02:41:57;;;;;;;147.50;78.63;;;8.50;99.90;;;;;;6276344;22;20008;-70
2023/02/18 02:44:37;;;;;;;148.07;82.40;;;8.50;99.90;;;;;;6275708;22;20027;-67
2023/02/18 02:47:18;;;;;;;149.57;80.73;;;8.50;99.90;;;;;;6276119;22;20000;-67
2023/02/18 02:50:14;;;;;;;148.03;79.27;;;8.50;99.90;;;;;;6275937;22;20441;-67
2023/02/18 02:52:45;;;;;;;144.80;79.47;;;8.50;99.90;;;;;;6276019;22;20007;-70
2023/02/18 02:55:11;;;;;;;151.03;81.23;;;8.50;99.90;;;;;;6276139;22;20307;-67
2023/02/18 02:57:44;;;;;;;157.03;83.87;;;8.50;99.90;;;;;;6276139;22;20015;-67
2023/02/18 03:00:11;;;;;;;146.98;78.65;;;8.50;99.90;;;;;;6275977;22;20415;-67
2023/02/18 03:02:56;;;;;;;160.40;79.73;;;8.50;99.90;;;;;;6276649;22;20439;-67
2023/02/18 03:05:49;;;;;;;157.50;82.90;;;8.50;99.90;;;;;;6278109;22;20007;-67
2023/02/18 03:08:39;;;;;;;158.03;81.63;;;8.50;99.90;;;;;;6278138;22;20401;-67
2023/02/18 03:11:09;;;;;;;174.20;83.40;;;8.50;99.90;;;;;;6250841;22;20027;-67
2023/02/18 03:13:59;;;;;;;175.00;86.30;;;8.50;99.90;;;;;;6278168;22;20019;-67
2023/02/18 03:16:28;;;;;;;173.67;85.50;;;8.50;99.90;;;;;;6277681;22;20338;-67
2023/02/18 03:19:09;;;;;;;168.67;84.73;;;8.50;99.90;;;;;;6278484;22;20071;-67
2023/02/18 03:21:50;;;;;;;175.03;82.63;;;8.50;99.90;;;;;;6278206;22;20087;-68
2023/02/18 03:24:38;;;;;;;160.17;80.50;;;8.50;99.90;;;;;;6278152;22;20000;-66
2023/02/18 03:27:25;;;;;;;162.70;83.17;;;8.50;99.90;;;;;;6277905;22;20331;-68
2023/02/18 03:30:00;;;;;;;164.03;80.20;;;8.50;99.90;;;;;;6277649;22;20000;-68
2023/02/18 03:32:28;;;;;;;157.10;81.37;;;8.60;99.90;;;;;;6277931;22;20034;-67
2023/02/18 03:35:09;;;;;;;155.07;79.00;;;8.50;99.90;;;;;;6277805;22;20011;-70
2023/02/18 03:37:39;;;;;;;160.47;80.53;;;8.50;99.90;;;;;;6277390;22;20586;-70
2023/02/18 03:40:06;;;;;;;160.07;82.50;;;8.50;99.90;;;;;;6277814;22;20000;-67
2023/02/18 03:42:32;;;;;;;157.27;81.17;;;8.50;99.90;;;;;;6278104;22;20421;-67
2023/02/18 03:44:58;;;;;;;155.43;79.97;;;8.50;99.90;;;;;;6277942;22;20004;-67
2023/02/18 03:47:24;;;;;;;150.80;78.90;;;8.50;99.90;;;;;;6278129;22;20027;-67
2023/02/18 03:49:49;;;;;;;151.67;79.70;;;8.50;99.90;;;;;;6277878;22;20445;-67
2023/02/18 03:52:15;;;;;;;149.70;79.57;;;8.50;99.90;;;;;;6277543;22;19999;-67
2023/02/18 03:54:41;;;;;;;151.00;79.53;;;8.50;99.90;;;;;;6277860;22;20388;-67
2023/02/18 03:57:07;;;;;;;151.50;78.50;;;8.50;99.90;;;;;;6277495;22;20012;-67
2023/02/18 03:59:33;;;;;;;153.77;78.40;;;8.50;99.90;;;;;;6277594;22;20016;-67
2023/02/18 04:01:58;;;;;;;155.70;79.03;;;8.50;99.90;;;;;;6277381;22;20025;-67
2023/02/18 04:04:24;;;;;;;155.60;81.20;;;8.50;99.90;;;;;;6277334;22;20446;-67
2023/02/18 04:06:50;;;;;;;149.73;80.80;;;8.50;99.90;;;;;;6277179;22;20026;-67
2023/02/18 04:09:15;;;;;;;152.53;79.50;;;8.50;99.90;;;;;;6277689;22;19999;-67
2023/02/18 04:11:41;;;;;;;147.13;79.37;;;8.50;99.90;;;;;;6277420;22;19995;-67
2023/02/18 04:14:07;;;;;;;154.43;81.00;;;8.50;99.90;;;;;;6276959;22;20012;-68
2023/02/18 04:16:33;;;;;;;158.33;81.40;;;8.50;99.90;;;;;;6277054;22;20089;-67
2023/02/18 04:18:58;;;;;;;151.63;81.83;;;8.50;99.90;;;;;;6277723;22;20000;-67
2023/02/18 04:21:24;;;;;;;155.03;80.90;;;8.50;99.90;;;;;;6277582;22;20006;-67
2023/02/18 04:23:50;;;;;;;154.80;83.10;;;8.50;99.90;;;;;;6277607;22;20014;-67
2023/02/18 04:26:16;;;;;;;155.17;82.40;;;8.50;99.90;;;;;;6277459;22;20000;-67
2023/02/18 04:28:41;;;;;;;150.57;79.73;;;8.50;99.90;;;;;;6250168;22;20011;-69
2023/02/18 04:31:07;;;;;;;157.47;83.67;;;8.50;99.90;;;;;;6277472;22;20082;-66
2023/02/18 04:33:33;;;;;;;154.07;80.97;;;8.50;99.90;;;;;;6277371;22;20410;-67
2023/02/18 04:35:58;;;;;;;153.03;79.70;;;8.50;99.90;;;;;;6277610;22;20069;-67
2023/02/18 04:38:24;;;;;;;149.73;79.70;;;8.50;99.90;;;;;;6276998;22;20334;-67
2023/02/18 04:40:49;;;;;;;153.57;79.00;;;8.50;99.90;;;;;;6277052;22;20419;-67
2023/02/18 04:43:15;;;;;;;156.43;80.20;;;8.50;99.90;;;;;;6277341;22;20477;-67
2023/02/18 04:45:41;;;;;;;144.40;77.07;;;8.50;99.90;;;;;;6277274;22;20010;-67
2023/02/18 04:48:07;;;;;;;148.10;77.03;;;8.50;99.90;;;;;;6277013;22;20008;-67
2023/02/18 04:50:32;;;;;;;154.60;80.60;;;8.50;99.90;;;;;;6276912;22;19996;-67
2023/02/18 04:52:58;;;;;;;147.47;77.37;;;8.50;99.90;;;;;;6276712;22;20085;-67
2023/02/18 04:55:24;;;;;;;149.90;80.77;;;8.50;99.90;;;;;;6277540;22;20027;-67
2023/02/18 04:57:49;;;;;;;152.33;79.80;;;8.50;99.90;;;;;;6277110;22;20064;-67
2023/02/18 05:00:17;;;;;;;151.53;82.20;;;8.50;99.90;;;;;;6277102;22;20018;-67
2023/02/18 05:02:44;;;;;;;148.00;76.67;;;8.60;99.90;;;;;;6276715;22;20034;-67
2023/02/18 05:05:10;;;;;;;144.03;76.37;;;8.60;99.90;;;;;;6277067;22;20050;-70
2023/02/18 05:07:36;;;;;;;147.93;79.07;;;8.50;99.90;;;;;;6276858;22;20430;-67
2023/02/18 05:10:01;;;;;;;143.33;80.57;;;8.60;99.90;;;;;;6276754;22;20027;-67
2023/02/18 05:12:27;;;;;;;144.70;76.73;;;8.50;99.90;;;;;;6276911;22;19999;-67
2023/02/18 05:14:53;;;;;;;143.10;80.80;;;8.50;99.90;;;;;;6276853;22;20007;-67
2023/02/18 05:17:18;;;;;;;143.70;78.73;;;8.50;99.80;;;;;;6276789;22;20004;-70
2023/02/18 05:19:44;;;;;;;145.77;79.00;;;8.50;99.80;;;;;;6276811;22;20058;-67
2023/02/18 05:22:10;;;;;;;141.37;76.07;;;8.50;99.90;;;;;;6276727;22;20492;-67
2023/02/18 05:24:35;;;;;;;142.27;78.50;;;8.40;99.90;;;;;;6276967;22;19996;-67
2023/02/18 05:27:01;;;;;;;145.80;77.77;;;8.40;99.90;;;;;;6276224;22;20063;-67
2023/02/18 05:29:27;;;;;;;149.87;80.37;;;8.50;99.90;;;;;;6276800;22;19995;-67
2023/02/18 05:31:52;;;;;;;146.67;79.00;;;8.40;99.90;;;;;;6276449;22;20003;-67
2023/02/18 05:34:18;;;;;;;151.07;78.63;;;8.40;99.90;;;;;;6276656;22;20003;-67
2023/02/18 05:36:44;;;;;;;146.53;77.70;;;8.40;99.90;;;;;;6276693;22;20007;-67
2023/02/18 05:39:09;;;;;;;143.37;77.70;;;8.40;99.90;;;;;;6277077;22;20006;-67
2023/02/18 05:41:35;;;;;;;148.87;80.17;;;8.40;99.90;;;;;;6277078;22;20318;-67
2023/02/18 05:46:45;;;;;;;146.00;77.73;;;8.40;99.90;;;;;;6276225;22;20019;-67
2023/02/18 05:49:11;;;;;;;146.33;78.57;;;8.40;99.90;;;;;;6277313;22;19996;-67
2023/02/18 05:51:36;;;;;;;144.33;78.93;;;8.40;99.80;;;;;;6276800;22;20004;-67
2023/02/18 05:54:03;;;;;;;150.60;79.73;;;8.40;99.80;;;;;;6276805;22;20071;-67
2023/02/18 05:56:29;;;;;;;151.40;82.27;;;8.30;99.80;;;;;;6276664;22;20007;-67
2023/02/18 05:58:55;;;;;;;154.90;81.23;;;8.30;99.90;;;;;;6276154;22;20464;-68
2023/02/18 06:01:20;;;;;;;145.27;79.17;;;8.40;99.90;;;;;;6249427;22;20012;-67
2023/02/18 06:03:46;;;;;;;149.33;78.67;;;8.40;99.90;;;;;;6276750;22;20006;-67
2023/02/18 06:06:12;;;;;;;143.20;75.90;;;8.40;99.80;;;;;;6276463;22;20322;-67
2023/02/18 06:08:37;;;;;;;143.40;77.27;;;8.30;99.80;;;;;;6276421;22;20007;-67
2023/02/18 06:11:03;;;;;;;147.93;78.20;;;8.30;99.80;;;;;;6276642;22;19996;-67
2023/02/18 06:13:29;;;;;;;144.73;79.23;;;8.30;99.80;;;;;;6276662;22;20077;-67
2023/02/18 06:15:55;;;;;;;147.17;78.43;;;8.40;99.90;;;;;;6276025;22;19999;-67
2023/02/18 06:18:21;;;;;;;145.60;77.97;;;8.40;99.80;;;;;;6276487;22;20014;-67
2023/02/18 06:20:47;;;;;;;148.47;79.37;;;8.30;99.80;;;;;;6276120;22;20003;-67
2023/02/18 06:23:14;;;;;;;150.13;79.93;;;8.40;99.90;;;;;;6276287;22;20057;-67
2023/02/18 06:25:40;;;;;;;149.23;80.87;;;8.40;99.90;;;;;;6276565;22;20318;-66
2023/02/18 06:28:06;;;;;;;150.37;80.13;;;8.40;99.90;;;;;;6276292;22;20004;-69
2023/02/18 06:30:32;;;;;;;145.77;78.40;;;8.40;99.90;;;;;;6276720;22;20078;-67
2023/02/18 06:32:58;;;;;;;144.07;79.87;;;8.40;99.90;;;;;;6276464;22;20027;-67
2023/02/18 06:35:24;;;;;;;146.77;78.00;;;8.40;99.90;;;;;;6276361;22;20012;-69
2023/02/18 06:37:49;;;;;;;152.83;81.03;;;8.40;99.90;;;;;;6276060;22;20008;-67
2023/02/18 06:40:15;;;;;;;149.70;79.03;;;8.40;99.90;;;;;;6276333;22;20055;-69
2023/02/18 06:42:41;;;;;;;146.03;77.90;;;8.40;99.90;;;;;;6276201;22;20011;-69
2023/02/18 06:45:07;;;;;;;147.07;78.63;;;8.40;99.90;;;;;;6276173;22;20072;-69
2023/02/18 06:47:33;;;;;;;147.43;78.97;;;8.40;99.90;;;;;;6249967;22;20086;-69
2023/02/18 06:49:59;;;;;;;147.00;79.53;;;8.40;99.90;;;;;;6249074;22;20079;-70
2023/02/18 06:52:24;;;;;;;146.73;81.03;;;8.40;99.90;;;;;;6275901;22;20030;-69
2023/02/18 06:54:50;;;;;;;151.30;79.93;;;8.40;99.90;;;;;;6276362;22;20425;-69
2023/02/18 06:57:16;;;;;;;143.53;77.20;;;8.40;99.90;;;;;;6276121;22;20442;-68
2023/02/18 06:59:42;;;;;;;144.77;78.70;;;8.30;99.90;;;;;;6275823;22;20011;-68
2023/02/18 07:02:12;;;;;;;147.23;80.40;;;8.40;99.90;;;;;;6276476;22;20020;-69
2023/02/18 07:04:38;;;;;;;156.00;81.73;;;8.40;99.90;;;;;;6276045;22;20027;-69
2023/02/18 07:07:03;;;;;;;149.77;79.77;;;8.40;99.90;;;;;;6276181;22;19999;-69
2023/02/18 07:09:29;;;;;;;143.60;79.33;;;8.40;99.90;;;;;;6276135;22;20011;-69
2023/02/18 07:11:55;;;;;;;157.33;82.90;;;8.40;99.90;;;;;;6248715;22;20445;-69
2023/02/18 07:14:23;;;;;;;153.37;80.93;;;8.40;99.90;;;;;;6276139;22;20008;-69
2023/02/18 07:16:48;;;;;;;147.73;81.67;;;8.40;99.90;;;;;;6275834;22;20019;-69
2023/02/18 07:19:14;;;;;;;151.83;81.73;;;8.40;99.90;;;;;;6276358;22;20310;-69
2023/02/18 07:21:40;;;;;;;147.23;78.47;;;8.40;99.90;;;;;;6276098;22;20053;-69
2023/02/18 07:24:06;;;;;;;145.90;81.30;;;8.40;99.90;;;;;;6276371;22;20023;-69
2023/02/18 07:26:31;;;;;;;153.27;81.73;;;8.50;99.90;;;;;;6276062;22;20114;-69
2023/02/18 07:28:57;;;;;;;143.80;82.37;;;8.50;99.90;;;;;;6276007;22;20000;-69
2023/02/18 07:31:23;;;;;;;150.77;82.83;;;8.50;99.90;;;;;;6275667;22;19996;-69
2023/02/18 07:33:48;;;;;;;148.37;81.57;;;8.50;99.90;;;;;;6275888;22;20442;-68
2023/02/18 07:36:14;;;;;;;149.27;83.23;;;8.50;99.90;;;;;;6275952;22;20411;-69
2023/02/18 07:38:40;;;;;;;146.90;80.00;;;8.60;99.90;;;;;;6275882;22;20015;-69
2023/02/18 07:41:05;;;;;;;154.77;83.27;;;8.60;99.90;;;;;;6275721;22;20053;-70
2023/02/18 07:43:31;;;;;;;149.50;81.67;;;8.50;99.90;;;;;;6276003;22;20007;-69
2023/02/18 07:45:57;;;;;;;153.73;81.97;;;8.60;99.90;;;;;;6275269;22;20000;-69
2023/02/18 07:48:22;;;;;;;151.27;81.13;;;8.60;99.90;;;;;;6275337;22;20004;-70
2023/02/18 07:50:48;;;;;;;150.87;85.00;;;8.60;99.90;;;;;;6277094;22;20041;-69
2023/02/18 07:53:15;;;;;;;150.77;82.50;;;8.60;99.90;;;;;;6278045;22;20066;-69
2023/02/18 07:55:50;;;;;;;144.90;79.80;;;8.60;99.90;;;;;;6277554;22;20003;-69
2023/02/18 07:58:16;;;;;;;145.13;79.33;;;8.60;99.90;;;;;;6277709;22;20008;-69
2023/02/18 08:00:42;;;;;;;144.30;80.10;;;8.60;99.90;;;;;;6277536;22;20083;-69
2023/02/18 08:03:08;;;;;;;139.67;78.90;;;8.70;99.90;;;;;;6277769;22;20035;-69
2023/02/18 08:05:33;;;;;;;142.33;80.67;;;8.70;99.90;;;;;;6277721;22;20491;-69
2023/02/18 08:07:59;;;;;;;146.30;82.97;;;8.70;99.90;;;;;;6277452;22;20447;-73
2023/02/18 08:10:25;;;;;;;145.03;81.00;;;8.70;99.90;;;;;;6277018;22;19996;-71
2023/02/18 08:12:51;;;;;;;150.17;81.47;;;8.70;99.90;;;;;;6277388;22;20008;-72
2023/02/18 08:15:16;;;;;;;156.17;82.83;;;8.80;99.80;;;;;;6277502;22;20008;-68
2023/02/18 08:17:42;;;;;;;150.17;80.90;;;8.70;99.80;;;;;;6277121;22;20105;-74
2023/02/18 08:20:09;;;;;;;148.27;81.43;;;8.70;99.80;;;;;;6276820;22;20034;-69
2023/02/18 08:22:35;;;;;;;150.67;82.30;;;8.80;99.70;;;;;;6277324;22;20089;-68
2023/02/18 08:25:00;;;;;;;155.00;84.53;;;8.80;99.60;;;;;;6276674;22;20007;-72
2023/02/18 08:27:27;;;;;;;151.63;83.77;;;8.80;99.50;;;;;;6277097;22;20006;-68
2023/02/18 08:29:53;;;;;;;149.07;82.70;;;8.80;99.50;;;;;;6277190;22;19996;-69
2023/02/18 08:32:18;;;;;;;152.37;87.13;;;8.80;99.60;;;;;;6248925;22;20057;-69
2023/02/18 08:34:44;;;;;;;153.63;90.43;;;8.80;99.60;;;;;;6277108;22;20057;-70
2023/02/18 08:37:10;;;;;;;157.53;90.60;;;8.80;99.60;;;;;;6277239;22;20475;-69
2023/02/18 08:39:37;;;;;;;155.37;87.90;;;8.80;99.50;;;;;;6277323;22;20007;-69
2023/02/18 08:42:03;;;;;;;150.97;84.23;;;8.80;99.50;;;;;;6277393;22;20063;-69
2023/02/18 08:44:28;;;;;;;150.27;82.97;;;8.80;99.50;;;;;;6277347;22;20000;-69
2023/02/18 08:46:54;;;;;;;152.80;83.40;;;8.80;99.40;;;;;;6277387;22;20033;-69
2023/02/18 08:49:20;;;;;;;157.70;84.10;;;8.80;99.40;;;;;;6277317;22;20426;-69
2023/02/18 08:51:46;;;;;;;155.33;83.93;;;8.80;99.40;;;;;;6277381;22;20026;-69
2023/02/18 08:54:12;;;;;;;147.17;81.07;;;8.90;99.50;;;;;;6249987;22;20083;-69
2023/02/18 08:56:38;;;;;;;149.07;83.13;;;8.90;99.40;;;;;;6276964;22;20444;-69
2023/02/18 08:59:04;;;;;;;153.33;85.63;;;8.90;99.30;;;;;;6277047;22;20003;-69
2023/02/18 09:01:30;;;;;;;157.07;87.20;;;8.90;99.30;;;;;;6277050;22;20083;-69
2023/02/18 09:03:56;;;;;;;154.07;88.57;;;8.90;99.30;;;;;;6277073;22;20438;-69
2023/02/18 09:06:22;;;;;;;159.87;85.80;;;8.90;99.30;;;;;;6249861;22;20087;-69
2023/02/18 09:08:48;;;;;;;148.73;83.20;;;8.90;99.30;;;;;;6277052;22;19996;-69
2023/02/18 09:11:15;;;;;;;146.87;84.20;;;8.90;99.30;;;;;;6276899;22;20077;-69
2023/02/18 09:13:40;;;;;;;152.00;84.77;;;9.00;99.30;;;;;;6249544;22;20011;-69
2023/02/18 09:16:12;;;;;;;148.00;86.00;;;9.00;99.40;;;;;;6277089;22;20008;-69
2023/02/18 09:18:37;;;;;;;145.57;83.07;;;9.00;99.30;;;;;;6276991;22;20337;-69
2023/02/18 09:21:06;;;;;;;150.80;85.53;;;9.00;99.30;;;;;;6276815;22;19999;-69
2023/02/18 09:23:32;;;;;;;152.17;85.27;;;9.00;99.30;;;;;;6277030;22;19995;-69
2023/02/18 09:25:59;;;;;;;153.87;84.67;;;9.00;99.30;;;;;;6276733;22;20336;-69
2023/02/18 09:28:25;;;;;;;141.23;80.17;;;9.00;99.60;;;;;;6276755;22;19988;-69
2023/02/18 09:30:51;;;;;;;148.77;84.93;;;9.00;99.30;;;;;;6276570;22;20075;-69
2023/02/18 09:33:18;;;;;;;147.97;84.07;;;9.00;99.30;;;;;;6276911;22;20028;-69
2023/02/18 09:35:45;;;;;;;143.10;82.93;;;9.00;99.30;;;;;;6277227;22;20467;-70
2023/02/18 09:38:13;;;;;;;146.63;83.53;;;9.10;99.20;;;;;;6276840;22;20019;-69
2023/02/18 09:40:43;;;;;;;145.53;86.37;;;9.00;99.10;;;;;;6276761;22;19996;-68
2023/02/18 09:43:33;;;;;;;145.60;85.33;;;9.00;99.00;;;;;;6276605;22;20007;-69
2023/02/18 09:46:00;;;;;;;150.77;86.87;;;9.10;98.90;;;;;;6276488;22;20318;-69
2023/02/18 09:48:34;;;;;;;154.70;86.40;;;9.10;98.70;;;;;;6276572;22;20000;-69
2023/02/18 09:50:59;;;;;;;158.37;90.30;;;9.10;98.80;;;;;;6276409;22;19995;-70
2023/02/18 09:53:25;;;;;;;160.77;90.37;;;9.10;98.70;;;;;;6276637;22;20026;-69
2023/02/18 09:55:55;;;;;;;150.53;88.60;;;9.10;98.60;;;;;;6276422;22;19995;-69
2023/02/18 09:58:25;;;;;;;158.63;89.60;;;9.20;98.60;;;;;;6249238;22;20042;-69
2023/02/18 10:01:04;;;;;;;150.97;88.20;;;9.10;98.60;;;;;;6276395;22;20019;-69
2023/02/18 10:03:30;;;;;;;147.97;88.30;;;9.20;98.60;;;;;;6276639;22;20072;-70
2023/02/18 10:06:04;;;;;;;148.13;89.07;;;9.20;98.60;;;;;;6273607;22;20004;-70
2023/02/18 10:08:35;;;;;;;144.47;87.30;;;9.20;98.60;;;;;;6245724;22;20011;-70
2023/02/18 10:11:01;;;;;;;149.37;87.73;;;9.20;98.60;;;;;;6272229;22;20000;-69
2023/02/18 10:13:32;;;;;;;142.50;84.43;;;9.30;98.60;;;;;;6245493;22;20015;-70
2023/02/18 10:15:58;;;;;;;152.33;89.73;;;9.30;98.60;;;;;;6274330;22;19996;-69
2023/02/18 10:18:34;;;;;;;148.87;87.30;;;9.30;98.60;;;;;;6276244;22;20038;-70
2023/02/18 10:21:13;;;;;;;146.20;87.20;;;9.30;98.70;;;;;;6276329;22;20003;-69
2023/02/18 10:23:43;;;;;;;141.73;85.93;;;9.40;98.80;;;;;;6276168;22;20035;-70
2023/02/18 10:26:16;;;;;;;143.50;87.00;;;9.30;98.70;;;;;;6276397;22;20003;-69
2023/02/18 10:28:43;;;;;;;144.67;85.83;;;9.40;98.70;;;;;;6275957;22;19996;-69
2023/02/18 10:31:13;;;;;;;140.63;86.07;;;9.40;98.60;;;;;;6276139;22;20460;-69
2023/02/18 10:33:42;;;;;;;140.37;86.47;;;9.40;98.70;;;;;;6276181;22;20006;-70
2023/02/18 10:36:19;;;;;;;139.67;84.70;;;9.40;98.40;;;;;;6275786;22;20410;-69
2023/02/18 10:39:04;;;;;;;145.97;87.87;;;9.40;98.40;;;;;;6274884;22;20008;-69
2023/02/18 10:41:56;;;;;;;140.37;86.40;;;9.50;98.40;;;;;;6272906;22;20058;-70
2023/02/18 10:44:28;;;;;;;136.67;83.53;;;9.50;98.40;;;;;;6245441;22;20518;-69
2023/02/18 10:47:12;;;;;;;140.40;81.80;;;9.50;98.50;;;;;;6275033;22;19988;-70
2023/02/18 10:50:10;;;;;;;137.33;83.73;;;9.60;98.50;;;;;;6275875;22;20038;-69
2023/02/18 10:52:45;;;;;;;140.70;84.27;;;9.60;98.40;;;;;;6276115;22;20329;-69
2023/02/18 10:55:17;;;;;;;138.23;83.80;;;9.60;98.40;;;;;;6275703;22;20426;-70
2023/02/18 10:57:54;;;;;;;139.15;85.40;;;9.60;98.30;;;;;;6276072;22;20329;-70
2023/02/18 11:00:22;;;;;;;142.07;87.23;;;9.70;98.30;;;;;;6273763;22;20023;-68
2023/02/18 11:03:14;;;;;;;143.90;85.70;;;9.70;98.30;;;;;;6245342;22;20000;-69
2023/02/18 11:05:40;;;;;;;132.27;83.57;;;9.70;98.30;;;;;;6274464;22;20435;-69
2023/02/18 11:08:10;;;;;;;141.93;84.87;;;9.70;98.20;;;;;;6274816;22;20007;-69
2023/02/18 11:10:40;;;;;;;143.23;87.43;;;9.80;98.20;;;;;;6274624;22;19996;-69
2023/02/18 11:13:09;;;;;;;133.00;83.13;;;9.80;98.20;;;;;;6274951;22;20003;-69
2023/02/18 11:15:35;;;;;;;134.48;82.43;;;9.80;98.10;;;;;;6275812;22;20010;-69
2023/02/18 11:18:12;;;;;;;124.50;79.60;;;9.80;98.10;;;;;;6275488;22;20008;-68
2023/02/18 11:20:38;;;;;;;126.87;78.57;;;9.80;98.10;;;;;;6248479;22;20303;-70
2023/02/18 11:23:04;;;;;;;127.18;75.78;;;9.90;98.20;;;;;;6275620;22;20004;-69
2023/02/18 11:25:33;;;;;;;116.50;71.93;;;9.90;98.10;;;;;;6277839;22;20377;-69
2023/02/18 11:28:06;;;;;;;111.97;71.53;;;9.90;98.00;;;;;;6250719;22;20407;-69
2023/02/18 11:30:44;;;;;;;118.70;70.28;;;10.00;98.00;;;;;;6278472;22;20008;-69
2023/02/18 11:33:21;;;;;;;109.57;67.50;;;10.00;97.80;;;;;;6277750;22;20307;-69
2023/02/18 11:35:52;;;;;;;112.83;69.50;;;10.00;97.70;;;;;;6276994;22;20126;-69
2023/02/18 11:38:25;;;;;;;107.15;68.78;;;10.10;97.70;;;;;;6277782;22;20018;-69
2023/02/18 11:41:00;;;;;;;107.13;65.75;;;10.10;97.60;;;;;;6277834;22;20003;-69
2023/02/18 11:43:29;;;;;;;97.13;61.38;;;10.20;97.70;;;;;;6278125;22;20319;-69
2023/02/18 11:46:18;;;;;;;101.55;64.50;;;10.20;97.60;;;;;;6277668;22;20055;-69
2023/02/18 11:48:44;;;;;;;105.40;65.03;;;10.30;97.60;;;;;;6277931;22;20003;-70
2023/02/18 11:51:22;;;;;;;94.30;59.65;;;10.30;97.60;;;;;;6277524;22;20003;-70
2023/02/18 11:54:28;;;;;;;92.13;59.78;;;10.40;97.60;;;;;;6275208;22;20018;-70
2023/02/18 11:57:04;;;;;;;92.15;59.65;;;10.40;97.40;;;;;;6274224;22;20039;-69
2023/02/18 11:59:35;;;;;;;92.20;59.67;;;10.50;97.30;;;;;;6277001;22;20047;-69
2023/02/18 12:02:09;;;;;;;89.90;60.05;;;10.50;97.20;;;;;;6275868;22;20004;-70
2023/02/18 12:04:51;;;;;;;89.35;59.88;;;10.50;97.20;;;;;;6274237;22;20004;-69
2023/02/18 12:07:22;;;;;;;82.53;56.20;;;10.60;97.10;;;;;;6274618;22;20000;-70
2023/02/18 12:09:51;;;;;;;86.57;57.13;;;10.60;97.10;;;;;;6276793;22;20027;-69
2023/02/18 12:12:22;;;;;;;81.93;54.85;;;10.60;97.10;;;;;;6277494;22;20004;-69
2023/02/18 12:14:48;;;;;;;83.03;56.50;;;10.60;97.00;;;;;;6277726;22;20011;-70
2023/02/18 12:17:20;;;;;;;91.82;58.85;;;10.60;96.90;;;;;;6276409;22;20016;-69
2023/02/18 12:19:55;;;;;;;79.65;54.90;;;10.60;97.10;;;;;;6277362;22;20027;-68
2023/02/18 12:22:51;;;;;;;73.85;51.00;;;10.60;97.30;;;;;;6277196;22;20338;-69
2023/02/18 12:25:25;;;;;;;84.88;56.58;;;10.70;97.00;;;;;;6275791;22;20034;-68
2023/02/18 12:28:06;;;;;;;79.18;56.25;;;10.70;96.90;;;;;;6276893;22;20053;-69
2023/02/18 12:31:13;;;;;;;76.90;53.92;;;10.70;96.80;;;;;;6277364;22;19996;-69
2023/02/18 12:34:15;;;;;;;75.20;51.70;;;10.70;96.80;;;;;;6277154;22;19999;-68
2023/02/18 12:37:02;;;;;;;78.53;53.87;;;10.80;96.80;;;;;;6277138;22;20007;-68
2023/02/18 12:40:08;;;;;;;71.90;51.42;;;10.80;96.80;;;;;;6276974;22;20003;-68
2023/02/18 12:43:16;;;;;;;72.15;51.53;;;10.80;96.70;;;;;;6277385;22;20074;-69